sensor_id;sensor_type;location;lat;lon;timestamp;P1;durP1;ratioP1;P2;durP2;ratioP2
30553;SDS011;17335;50.720;7.452;2022-08-19T00:01:58;23.77;;;16.58;;
30553;SDS011;17335;50.720;7.452;2022-08-19T00:04:27;28.45;;;17.55;;
30553;SDS011;17335;50.720;7.452;2022-08-19T00:06:57;25.90;;;16.23;;
30553;SDS011;17335;50.720;7.452;2022-08-19T00:09:24;25.02;;;16.80;;
30553;SDS011;17335;50.720;7.452;2022-08-19T00:11:53;26.13;;;17.63;;
30553;SDS011;17335;50.720;7.452;2022-08-19T00:14:22;26.45;;;17.83;;
30553;SDS011;17335;50.720;7.452;2022-08-19T00:16:50;25.20;;;17.48;;
30553;SDS011;17335;50.720;7.452;2022-08-19T00:19:21;25.88;;;17.30;;
30553;SDS011;17335;50.720;7.452;2022-08-19T00:21:49;26.58;;;18.10;;
30553;SDS011;17335;50.720;7.452;2022-08-19T00:24:16;26.92;;;17.33;;
30553;SDS011;17335;50.720;7.452;2022-08-19T00:26:43;27.92;;;18.45;;
30553;SDS011;17335;50.720;7.452;2022-08-19T00:29:12;29.45;;;18.45;;
30553;SDS011;17335;50.720;7.452;2022-08-19T00:31:40;26.80;;;17.95;;
30553;SDS011;17335;50.720;7.452;2022-08-19T00:34:09;27.35;;;17.15;;
30553;SDS011;17335;50.720;7.452;2022-08-19T00:36:36;26.02;;;17.15;;
30553;SDS011;17335;50.720;7.452;2022-08-19T00:39:03;26.23;;;16.60;;
30553;SDS011;17335;50.720;7.452;2022-08-19T00:41:30;22.20;;;15.57;;
30553;SDS011;17335;50.720;7.452;2022-08-19T00:46:36;27.77;;;16.67;;
30553;SDS011;17335;50.720;7.452;2022-08-19T00:49:15;26.13;;;15.90;;
30553;SDS011;17335;50.720;7.452;2022-08-19T00:51:44;27.52;;;17.92;;
30553;SDS011;17335;50.720;7.452;2022-08-19T00:54:13;27.30;;;16.15;;
30553;SDS011;17335;50.720;7.452;2022-08-19T00:56:41;21.40;;;15.05;;
30553;SDS011;17335;50.720;7.452;2022-08-19T00:59:08;19.90;;;13.85;;
30553;SDS011;17335;50.720;7.452;2022-08-19T01:01:39;21.70;;;14.90;;
30553;SDS011;17335;50.720;7.452;2022-08-19T01:04:10;22.85;;;14.90;;
30553;SDS011;17335;50.720;7.452;2022-08-19T01:06:37;20.02;;;14.07;;
30553;SDS011;17335;50.720;7.452;2022-08-19T01:09:07;20.27;;;14.25;;
30553;SDS011;17335;50.720;7.452;2022-08-19T01:11:36;22.80;;;13.93;;
30553;SDS011;17335;50.720;7.452;2022-08-19T01:14:08;20.80;;;13.55;;
30553;SDS011;17335;50.720;7.452;2022-08-19T01:16:36;17.95;;;12.45;;
30553;SDS011;17335;50.720;7.452;2022-08-19T01:19:13;21.90;;;13.80;;
30553;SDS011;17335;50.720;7.452;2022-08-19T01:21:52;20.00;;;13.40;;
30553;SDS011;17335;50.720;7.452;2022-08-19T01:24:41;22.35;;;13.63;;
30553;SDS011;17335;50.720;7.452;2022-08-19T01:27:15;23.02;;;13.50;;
30553;SDS011;17335;50.720;7.452;2022-08-19T01:29:43;19.45;;;12.65;;
30553;SDS011;17335;50.720;7.452;2022-08-19T01:32:12;20.70;;;13.00;;
30553;SDS011;17335;50.720;7.452;2022-08-19T01:34:58;19.65;;;13.32;;
30553;SDS011;17335;50.720;7.452;2022-08-19T01:37:27;20.65;;;12.85;;
30553;SDS011;17335;50.720;7.452;2022-08-19T01:39:55;20.70;;;13.95;;
30553;SDS011;17335;50.720;7.452;2022-08-19T01:42:22;22.13;;;13.38;;
30553;SDS011;17335;50.720;7.452;2022-08-19T01:44:56;20.98;;;13.50;;
30553;SDS011;17335;50.720;7.452;2022-08-19T01:47:23;22.35;;;14.35;;
30553;SDS011;17335;50.720;7.452;2022-08-19T01:49:50;19.92;;;13.27;;
30553;SDS011;17335;50.720;7.452;2022-08-19T01:52:16;20.33;;;12.70;;
30553;SDS011;17335;50.720;7.452;2022-08-19T01:54:43;20.10;;;13.25;;
30553;SDS011;17335;50.720;7.452;2022-08-19T01:57:10;21.63;;;14.75;;
30553;SDS011;17335;50.720;7.452;2022-08-19T01:59:40;20.13;;;12.60;;
30553;SDS011;17335;50.720;7.452;2022-08-19T02:02:10;22.70;;;15.55;;
30553;SDS011;17335;50.720;7.452;2022-08-19T02:04:37;20.75;;;14.23;;
30553;SDS011;17335;50.720;7.452;2022-08-19T02:07:05;21.30;;;14.07;;
30553;SDS011;17335;50.720;7.452;2022-08-19T02:09:32;22.05;;;14.00;;
30553;SDS011;17335;50.720;7.452;2022-08-19T02:11:59;21.92;;;13.50;;
30553;SDS011;17335;50.720;7.452;2022-08-19T02:14:25;22.58;;;14.52;;
30553;SDS011;17335;50.720;7.452;2022-08-19T02:16:52;20.77;;;14.02;;
30553;SDS011;17335;50.720;7.452;2022-08-19T02:19:19;24.45;;;14.25;;
30553;SDS011;17335;50.720;7.452;2022-08-19T02:21:45;19.20;;;12.63;;
30553;SDS011;17335;50.720;7.452;2022-08-19T02:24:12;23.35;;;13.98;;
30553;SDS011;17335;50.720;7.452;2022-08-19T02:26:38;19.73;;;13.40;;
30553;SDS011;17335;50.720;7.452;2022-08-19T02:29:05;21.23;;;14.48;;
30553;SDS011;17335;50.720;7.452;2022-08-19T02:31:32;19.20;;;12.98;;
30553;SDS011;17335;50.720;7.452;2022-08-19T02:33:59;21.70;;;14.50;;
30553;SDS011;17335;50.720;7.452;2022-08-19T02:36:26;24.25;;;14.90;;
30553;SDS011;17335;50.720;7.452;2022-08-19T02:38:55;23.23;;;15.70;;
30553;SDS011;17335;50.720;7.452;2022-08-19T02:41:24;23.55;;;15.05;;
30553;SDS011;17335;50.720;7.452;2022-08-19T02:43:56;24.95;;;14.60;;
30553;SDS011;17335;50.720;7.452;2022-08-19T02:46:45;21.98;;;14.32;;
30553;SDS011;17335;50.720;7.452;2022-08-19T02:49:13;26.35;;;15.27;;
30553;SDS011;17335;50.720;7.452;2022-08-19T02:51:43;25.80;;;14.57;;
30553;SDS011;17335;50.720;7.452;2022-08-19T02:54:11;21.85;;;14.27;;
30553;SDS011;17335;50.720;7.452;2022-08-19T02:56:39;24.45;;;14.93;;
30553;SDS011;17335;50.720;7.452;2022-08-19T02:59:08;20.15;;;13.45;;
30553;SDS011;17335;50.720;7.452;2022-08-19T03:01:37;18.92;;;12.48;;
30553;SDS011;17335;50.720;7.452;2022-08-19T03:04:07;20.65;;;13.25;;
30553;SDS011;17335;50.720;7.452;2022-08-19T03:06:39;23.52;;;13.60;;
30553;SDS011;17335;50.720;7.452;2022-08-19T03:09:08;26.67;;;13.68;;
30553;SDS011;17335;50.720;7.452;2022-08-19T03:11:35;23.38;;;15.00;;
30553;SDS011;17335;50.720;7.452;2022-08-19T03:14:03;22.08;;;13.20;;
30553;SDS011;17335;50.720;7.452;2022-08-19T03:16:32;23.40;;;14.40;;
30553;SDS011;17335;50.720;7.452;2022-08-19T03:19:01;22.33;;;13.20;;
30553;SDS011;17335;50.720;7.452;2022-08-19T03:21:30;23.02;;;14.57;;
30553;SDS011;17335;50.720;7.452;2022-08-19T03:24:02;22.25;;;14.52;;
30553;SDS011;17335;50.720;7.452;2022-08-19T03:26:31;21.90;;;13.73;;
30553;SDS011;17335;50.720;7.452;2022-08-19T03:29:01;22.80;;;13.32;;
30553;SDS011;17335;50.720;7.452;2022-08-19T03:31:30;23.20;;;14.77;;
30553;SDS011;17335;50.720;7.452;2022-08-19T03:34:15;24.50;;;14.90;;
30553;SDS011;17335;50.720;7.452;2022-08-19T03:36:44;24.85;;;14.82;;
30553;SDS011;17335;50.720;7.452;2022-08-19T03:39:11;23.50;;;14.35;;
30553;SDS011;17335;50.720;7.452;2022-08-19T03:41:39;23.70;;;13.88;;
30553;SDS011;17335;50.720;7.452;2022-08-19T03:44:11;22.20;;;14.63;;
30553;SDS011;17335;50.720;7.452;2022-08-19T03:46:44;20.52;;;13.23;;
30553;SDS011;17335;50.720;7.452;2022-08-19T03:49:11;24.88;;;13.90;;
30553;SDS011;17335;50.720;7.452;2022-08-19T03:51:40;24.17;;;14.73;;
30553;SDS011;17335;50.720;7.452;2022-08-19T03:54:10;24.45;;;14.95;;
30553;SDS011;17335;50.720;7.452;2022-08-19T03:56:40;23.88;;;13.98;;
30553;SDS011;17335;50.720;7.452;2022-08-19T03:59:10;26.08;;;14.43;;
30553;SDS011;17335;50.720;7.452;2022-08-19T04:01:39;23.05;;;15.18;;
30553;SDS011;17335;50.720;7.452;2022-08-19T04:04:06;21.42;;;14.30;;
30553;SDS011;17335;50.720;7.452;2022-08-19T04:06:35;22.75;;;14.38;;
30553;SDS011;17335;50.720;7.452;2022-08-19T04:09:05;27.00;;;16.60;;
30553;SDS011;17335;50.720;7.452;2022-08-19T04:11:36;23.05;;;14.45;;
30553;SDS011;17335;50.720;7.452;2022-08-19T04:14:13;24.50;;;15.45;;
30553;SDS011;17335;50.720;7.452;2022-08-19T04:16:44;27.90;;;17.00;;
30553;SDS011;17335;50.720;7.452;2022-08-19T04:19:13;24.90;;;15.27;;
30553;SDS011;17335;50.720;7.452;2022-08-19T04:21:42;24.50;;;15.18;;
30553;SDS011;17335;50.720;7.452;2022-08-19T04:24:14;28.25;;;16.67;;
30553;SDS011;17335;50.720;7.452;2022-08-19T04:26:41;28.88;;;16.85;;
30553;SDS011;17335;50.720;7.452;2022-08-19T04:29:10;24.40;;;15.50;;
30553;SDS011;17335;50.720;7.452;2022-08-19T04:31:39;26.85;;;16.38;;
30553;SDS011;17335;50.720;7.452;2022-08-19T04:34:09;26.15;;;16.30;;
30553;SDS011;17335;50.720;7.452;2022-08-19T04:36:37;25.80;;;16.30;;
30553;SDS011;17335;50.720;7.452;2022-08-19T04:39:11;28.63;;;16.85;;
30553;SDS011;17335;50.720;7.452;2022-08-19T04:41:39;26.00;;;16.80;;
30553;SDS011;17335;50.720;7.452;2022-08-19T04:44:25;23.67;;;14.63;;
30553;SDS011;17335;50.720;7.452;2022-08-19T04:46:52;26.45;;;16.23;;
30553;SDS011;17335;50.720;7.452;2022-08-19T04:49:20;27.75;;;15.77;;
30553;SDS011;17335;50.720;7.452;2022-08-19T04:51:48;28.33;;;17.50;;
30553;SDS011;17335;50.720;7.452;2022-08-19T04:54:18;29.45;;;16.75;;
30553;SDS011;17335;50.720;7.452;2022-08-19T04:57:05;27.58;;;17.63;;
30553;SDS011;17335;50.720;7.452;2022-08-19T04:59:35;28.08;;;18.05;;
30553;SDS011;17335;50.720;7.452;2022-08-19T05:02:04;30.20;;;18.35;;
30553;SDS011;17335;50.720;7.452;2022-08-19T05:04:32;29.35;;;18.23;;
30553;SDS011;17335;50.720;7.452;2022-08-19T05:07:00;31.58;;;18.92;;
30553;SDS011;17335;50.720;7.452;2022-08-19T05:09:27;27.35;;;17.55;;
30553;SDS011;17335;50.720;7.452;2022-08-19T05:12:15;28.42;;;17.02;;
30553;SDS011;17335;50.720;7.452;2022-08-19T05:14:43;32.33;;;18.02;;
30553;SDS011;17335;50.720;7.452;2022-08-19T05:17:11;31.50;;;18.10;;
30553;SDS011;17335;50.720;7.452;2022-08-19T05:19:59;30.00;;;18.30;;
30553;SDS011;17335;50.720;7.452;2022-08-19T05:22:45;28.52;;;15.90;;
30553;SDS011;17335;50.720;7.452;2022-08-19T05:25:15;28.38;;;16.80;;
30553;SDS011;17335;50.720;7.452;2022-08-19T05:27:45;28.48;;;16.88;;
30553;SDS011;17335;50.720;7.452;2022-08-19T05:30:13;30.48;;;18.35;;
30553;SDS011;17335;50.720;7.452;2022-08-19T05:32:41;28.80;;;17.73;;
30553;SDS011;17335;50.720;7.452;2022-08-19T05:35:08;29.65;;;17.85;;
30553;SDS011;17335;50.720;7.452;2022-08-19T05:37:35;29.95;;;18.30;;
30553;SDS011;17335;50.720;7.452;2022-08-19T05:40:02;27.50;;;18.45;;
30553;SDS011;17335;50.720;7.452;2022-08-19T05:42:30;30.15;;;17.88;;
30553;SDS011;17335;50.720;7.452;2022-08-19T05:44:57;33.53;;;19.35;;
30553;SDS011;17335;50.720;7.452;2022-08-19T05:47:24;35.40;;;20.38;;
30553;SDS011;17335;50.720;7.452;2022-08-19T05:49:51;33.17;;;18.10;;
30553;SDS011;17335;50.720;7.452;2022-08-19T05:52:18;27.25;;;17.63;;
30553;SDS011;17335;50.720;7.452;2022-08-19T05:54:51;34.00;;;18.27;;
30553;SDS011;17335;50.720;7.452;2022-08-19T05:57:21;26.45;;;17.27;;
30553;SDS011;17335;50.720;7.452;2022-08-19T05:59:49;25.10;;;17.13;;
30553;SDS011;17335;50.720;7.452;2022-08-19T06:02:27;29.42;;;18.10;;
30553;SDS011;17335;50.720;7.452;2022-08-19T06:04:57;37.53;;;19.73;;
30553;SDS011;17335;50.720;7.452;2022-08-19T06:07:23;30.02;;;18.75;;
30553;SDS011;17335;50.720;7.452;2022-08-19T06:09:50;33.90;;;20.75;;
30553;SDS011;17335;50.720;7.452;2022-08-19T06:12:26;31.88;;;19.83;;
30553;SDS011;17335;50.720;7.452;2022-08-19T06:14:59;25.85;;;16.13;;
30553;SDS011;17335;50.720;7.452;2022-08-19T06:17:28;25.95;;;15.65;;
30553;SDS011;17335;50.720;7.452;2022-08-19T06:19:56;31.50;;;20.05;;
30553;SDS011;17335;50.720;7.452;2022-08-19T06:22:24;33.58;;;20.10;;
30553;SDS011;17335;50.720;7.452;2022-08-19T06:24:52;31.50;;;19.13;;
30553;SDS011;17335;50.720;7.452;2022-08-19T06:27:20;33.97;;;20.77;;
30553;SDS011;17335;50.720;7.452;2022-08-19T06:29:47;39.92;;;25.65;;
30553;SDS011;17335;50.720;7.452;2022-08-19T06:32:16;44.55;;;26.58;;
30553;SDS011;17335;50.720;7.452;2022-08-19T06:34:44;42.80;;;25.83;;
30553;SDS011;17335;50.720;7.452;2022-08-19T06:37:10;42.15;;;26.63;;
30553;SDS011;17335;50.720;7.452;2022-08-19T06:39:39;43.25;;;25.45;;
30553;SDS011;17335;50.720;7.452;2022-08-19T06:42:10;47.92;;;27.52;;
30553;SDS011;17335;50.720;7.452;2022-08-19T06:44:43;44.63;;;27.27;;
30553;SDS011;17335;50.720;7.452;2022-08-19T06:47:17;44.22;;;26.23;;
30553;SDS011;17335;50.720;7.452;2022-08-19T06:49:52;47.75;;;26.83;;
30553;SDS011;17335;50.720;7.452;2022-08-19T06:52:26;45.10;;;27.95;;
30553;SDS011;17335;50.720;7.452;2022-08-19T06:54:53;45.58;;;28.33;;
30553;SDS011;17335;50.720;7.452;2022-08-19T06:57:25;46.85;;;28.77;;
30553;SDS011;17335;50.720;7.452;2022-08-19T06:59:52;47.13;;;29.85;;
30553;SDS011;17335;50.720;7.452;2022-08-19T07:02:19;50.53;;;30.08;;
30553;SDS011;17335;50.720;7.452;2022-08-19T07:04:47;51.15;;;31.02;;
30553;SDS011;17335;50.720;7.452;2022-08-19T07:07:18;48.25;;;30.42;;
30553;SDS011;17335;50.720;7.452;2022-08-19T07:09:47;50.42;;;30.65;;
30553;SDS011;17335;50.720;7.452;2022-08-19T07:12:25;51.28;;;30.10;;
30553;SDS011;17335;50.720;7.452;2022-08-19T07:14:55;50.17;;;29.48;;
30553;SDS011;17335;50.720;7.452;2022-08-19T07:17:22;52.13;;;30.38;;
30553;SDS011;17335;50.720;7.452;2022-08-19T07:19:50;50.40;;;29.65;;
30553;SDS011;17335;50.720;7.452;2022-08-19T07:22:19;52.15;;;28.67;;
30553;SDS011;17335;50.720;7.452;2022-08-19T07:24:49;49.28;;;28.83;;
30553;SDS011;17335;50.720;7.452;2022-08-19T07:27:17;45.72;;;27.77;;
30553;SDS011;17335;50.720;7.452;2022-08-19T07:29:50;45.92;;;28.52;;
30553;SDS011;17335;50.720;7.452;2022-08-19T07:32:21;45.05;;;27.80;;
30553;SDS011;17335;50.720;7.452;2022-08-19T07:34:48;46.83;;;26.85;;
30553;SDS011;17335;50.720;7.452;2022-08-19T07:37:15;43.58;;;25.67;;
30553;SDS011;17335;50.720;7.452;2022-08-19T07:39:42;48.45;;;28.38;;
30553;SDS011;17335;50.720;7.452;2022-08-19T07:42:09;44.72;;;26.33;;
30553;SDS011;17335;50.720;7.452;2022-08-19T07:44:38;45.55;;;26.70;;
30553;SDS011;17335;50.720;7.452;2022-08-19T07:47:11;43.45;;;26.52;;
30553;SDS011;17335;50.720;7.452;2022-08-19T07:50:02;42.28;;;25.50;;
30553;SDS011;17335;50.720;7.452;2022-08-19T07:52:33;44.20;;;25.65;;
30553;SDS011;17335;50.720;7.452;2022-08-19T07:55:00;44.95;;;25.98;;
30553;SDS011;17335;50.720;7.452;2022-08-19T07:57:30;40.60;;;23.92;;
30553;SDS011;17335;50.720;7.452;2022-08-19T07:59:56;42.50;;;23.38;;
30553;SDS011;17335;50.720;7.452;2022-08-19T08:02:23;41.80;;;22.73;;
30553;SDS011;17335;50.720;7.452;2022-08-19T08:04:50;34.42;;;20.77;;
30553;SDS011;17335;50.720;7.452;2022-08-19T08:07:35;39.03;;;22.23;;
30553;SDS011;17335;50.720;7.452;2022-08-19T08:10:20;35.67;;;23.48;;
30553;SDS011;17335;50.720;7.452;2022-08-19T08:12:49;43.55;;;25.70;;
30553;SDS011;17335;50.720;7.452;2022-08-19T08:15:36;38.47;;;24.55;;
30553;SDS011;17335;50.720;7.452;2022-08-19T08:18:08;38.15;;;23.75;;
30553;SDS011;17335;50.720;7.452;2022-08-19T08:20:35;37.45;;;23.10;;
30553;SDS011;17335;50.720;7.452;2022-08-19T08:23:02;37.50;;;23.13;;
30553;SDS011;17335;50.720;7.452;2022-08-19T08:25:48;36.75;;;23.38;;
30553;SDS011;17335;50.720;7.452;2022-08-19T08:28:15;37.47;;;23.92;;
30553;SDS011;17335;50.720;7.452;2022-08-19T08:30:43;37.17;;;21.98;;
30553;SDS011;17335;50.720;7.452;2022-08-19T08:33:11;36.10;;;22.50;;
30553;SDS011;17335;50.720;7.452;2022-08-19T08:35:39;37.83;;;23.00;;
30553;SDS011;17335;50.720;7.452;2022-08-19T08:38:11;37.78;;;21.02;;
30553;SDS011;17335;50.720;7.452;2022-08-19T08:40:42;36.60;;;22.15;;
30553;SDS011;17335;50.720;7.452;2022-08-19T08:43:19;36.80;;;21.25;;
30553;SDS011;17335;50.720;7.452;2022-08-19T08:46:12;34.03;;;20.55;;
30553;SDS011;17335;50.720;7.452;2022-08-19T08:51:59;29.65;;;18.55;;
30553;SDS011;17335;50.720;7.452;2022-08-19T08:57:00;30.98;;;17.90;;
30553;SDS011;17335;50.720;7.452;2022-08-19T08:59:31;29.35;;;18.83;;
30553;SDS011;17335;50.720;7.452;2022-08-19T09:02:03;31.75;;;18.73;;
30553;SDS011;17335;50.720;7.452;2022-08-19T09:04:30;25.63;;;16.48;;
30553;SDS011;17335;50.720;7.452;2022-08-19T09:07:03;24.77;;;17.38;;
30553;SDS011;17335;50.720;7.452;2022-08-19T09:10:07;25.77;;;16.80;;
30553;SDS011;17335;50.720;7.452;2022-08-19T09:12:48;30.13;;;19.65;;
30553;SDS011;17335;50.720;7.452;2022-08-19T09:15:22;35.70;;;21.25;;
30553;SDS011;17335;50.720;7.452;2022-08-19T09:18:03;29.88;;;19.13;;
30553;SDS011;17335;50.720;7.452;2022-08-19T09:20:32;34.33;;;21.33;;
30553;SDS011;17335;50.720;7.452;2022-08-19T09:22:59;23.15;;;16.08;;
30553;SDS011;17335;50.720;7.452;2022-08-19T09:25:26;28.20;;;17.88;;
30553;SDS011;17335;50.720;7.452;2022-08-19T09:27:54;29.60;;;19.23;;
30553;SDS011;17335;50.720;7.452;2022-08-19T09:30:29;29.40;;;19.05;;
30553;SDS011;17335;50.720;7.452;2022-08-19T09:33:06;28.02;;;17.75;;
30553;SDS011;17335;50.720;7.452;2022-08-19T09:35:33;26.98;;;18.58;;
30553;SDS011;17335;50.720;7.452;2022-08-19T09:38:19;25.20;;;15.65;;
30553;SDS011;17335;50.720;7.452;2022-08-19T09:40:46;21.00;;;14.80;;
30553;SDS011;17335;50.720;7.452;2022-08-19T09:43:13;22.48;;;15.07;;
30553;SDS011;17335;50.720;7.452;2022-08-19T09:45:58;30.38;;;19.75;;
30553;SDS011;17335;50.720;7.452;2022-08-19T09:48:26;24.90;;;16.95;;
30553;SDS011;17335;50.720;7.452;2022-08-19T09:50:53;25.85;;;16.17;;
30553;SDS011;17335;50.720;7.452;2022-08-19T09:53:20;25.25;;;17.52;;
30553;SDS011;17335;50.720;7.452;2022-08-19T09:55:50;25.52;;;18.65;;
30553;SDS011;17335;50.720;7.452;2022-08-19T09:58:17;29.05;;;19.33;;
30553;SDS011;17335;50.720;7.452;2022-08-19T10:00:49;27.65;;;17.67;;
30553;SDS011;17335;50.720;7.452;2022-08-19T10:03:17;24.45;;;15.75;;
30553;SDS011;17335;50.720;7.452;2022-08-19T10:05:43;20.13;;;15.68;;
30553;SDS011;17335;50.720;7.452;2022-08-19T10:08:24;32.30;;;18.17;;
30553;SDS011;17335;50.720;7.452;2022-08-19T10:10:56;20.75;;;13.73;;
30553;SDS011;17335;50.720;7.452;2022-08-19T10:13:25;18.52;;;13.15;;
30553;SDS011;17335;50.720;7.452;2022-08-19T10:15:53;18.15;;;12.43;;
30553;SDS011;17335;50.720;7.452;2022-08-19T10:18:22;17.67;;;11.77;;
30553;SDS011;17335;50.720;7.452;2022-08-19T10:20:51;15.88;;;10.35;;
30553;SDS011;17335;50.720;7.452;2022-08-19T10:23:20;18.55;;;12.30;;
30553;SDS011;17335;50.720;7.452;2022-08-19T10:25:47;19.48;;;11.30;;
30553;SDS011;17335;50.720;7.452;2022-08-19T10:28:14;16.73;;;10.82;;
30553;SDS011;17335;50.720;7.452;2022-08-19T10:34:31;18.17;;;12.50;;
30553;SDS011;17335;50.720;7.452;2022-08-19T10:36:59;19.27;;;11.90;;
30553;SDS011;17335;50.720;7.452;2022-08-19T10:39:28;14.68;;;10.20;;
30553;SDS011;17335;50.720;7.452;2022-08-19T10:41:58;16.63;;;11.30;;
30553;SDS011;17335;50.720;7.452;2022-08-19T10:44:25;19.42;;;10.15;;
30553;SDS011;17335;50.720;7.452;2022-08-19T10:46:58;15.57;;;10.30;;
30553;SDS011;17335;50.720;7.452;2022-08-19T10:49:25;17.13;;;9.50;;
30553;SDS011;17335;50.720;7.452;2022-08-19T10:51:53;17.50;;;9.77;;
30553;SDS011;17335;50.720;7.452;2022-08-19T10:54:45;14.57;;;9.15;;
30553;SDS011;17335;50.720;7.452;2022-08-19T10:57:33;15.77;;;11.02;;
30553;SDS011;17335;50.720;7.452;2022-08-19T11:00:21;14.38;;;10.43;;
30553;SDS011;17335;50.720;7.452;2022-08-19T11:02:49;23.70;;;14.38;;
30553;SDS011;17335;50.720;7.452;2022-08-19T11:05:17;25.35;;;13.00;;
30553;SDS011;17335;50.720;7.452;2022-08-19T11:07:44;18.38;;;12.60;;
30553;SDS011;17335;50.720;7.452;2022-08-19T11:10:12;21.17;;;13.95;;
30553;SDS011;17335;50.720;7.452;2022-08-19T11:12:46;18.90;;;12.32;;
30553;SDS011;17335;50.720;7.452;2022-08-19T11:15:13;17.15;;;11.25;;
30553;SDS011;17335;50.720;7.452;2022-08-19T11:17:40;22.83;;;13.60;;
30553;SDS011;17335;50.720;7.452;2022-08-19T11:20:13;25.73;;;15.13;;
30553;SDS011;17335;50.720;7.452;2022-08-19T11:22:41;20.65;;;13.32;;
30553;SDS011;17335;50.720;7.452;2022-08-19T11:25:09;16.75;;;12.18;;
30553;SDS011;17335;50.720;7.452;2022-08-19T11:27:37;17.83;;;11.25;;
30553;SDS011;17335;50.720;7.452;2022-08-19T11:30:09;18.85;;;12.38;;
30553;SDS011;17335;50.720;7.452;2022-08-19T11:32:39;20.27;;;12.77;;
30553;SDS011;17335;50.720;7.452;2022-08-19T11:35:11;19.48;;;13.68;;
30553;SDS011;17335;50.720;7.452;2022-08-19T11:37:37;21.20;;;13.65;;
30553;SDS011;17335;50.720;7.452;2022-08-19T11:40:05;20.02;;;12.50;;
30553;SDS011;17335;50.720;7.452;2022-08-19T11:42:32;18.00;;;12.55;;
30553;SDS011;17335;50.720;7.452;2022-08-19T11:45:17;25.08;;;15.60;;
30553;SDS011;17335;50.720;7.452;2022-08-19T11:47:44;20.88;;;12.75;;
30553;SDS011;17335;50.720;7.452;2022-08-19T11:50:12;23.40;;;15.20;;
30553;SDS011;17335;50.720;7.452;2022-08-19T11:52:39;20.65;;;12.98;;
30553;SDS011;17335;50.720;7.452;2022-08-19T11:55:06;26.65;;;16.02;;
30553;SDS011;17335;50.720;7.452;2022-08-19T11:57:33;22.13;;;14.30;;
30553;SDS011;17335;50.720;7.452;2022-08-19T11:59:59;18.85;;;13.40;;
30553;SDS011;17335;50.720;7.452;2022-08-19T12:02:27;20.17;;;12.27;;
30553;SDS011;17335;50.720;7.452;2022-08-19T12:04:54;23.90;;;14.88;;
30553;SDS011;17335;50.720;7.452;2022-08-19T12:07:20;20.60;;;12.13;;
30553;SDS011;17335;50.720;7.452;2022-08-19T12:09:47;20.35;;;13.02;;
30553;SDS011;17335;50.720;7.452;2022-08-19T12:12:14;21.45;;;11.82;;
30553;SDS011;17335;50.720;7.452;2022-08-19T12:14:41;22.00;;;12.35;;
30553;SDS011;17335;50.720;7.452;2022-08-19T12:17:07;16.30;;;11.02;;
30553;SDS011;17335;50.720;7.452;2022-08-19T12:19:36;20.08;;;12.95;;
30553;SDS011;17335;50.720;7.452;2022-08-19T12:22:03;17.60;;;11.45;;
30553;SDS011;17335;50.720;7.452;2022-08-19T12:24:32;13.95;;;10.18;;
30553;SDS011;17335;50.720;7.452;2022-08-19T12:27:00;15.38;;;9.50;;
30553;SDS011;17335;50.720;7.452;2022-08-19T12:29:28;15.82;;;9.40;;
30553;SDS011;17335;50.720;7.452;2022-08-19T12:31:56;16.90;;;11.73;;
30553;SDS011;17335;50.720;7.452;2022-08-19T12:34:29;15.32;;;10.75;;
30553;SDS011;17335;50.720;7.452;2022-08-19T12:36:56;14.55;;;10.38;;
30553;SDS011;17335;50.720;7.452;2022-08-19T12:39:24;13.73;;;9.80;;
30553;SDS011;17335;50.720;7.452;2022-08-19T12:41:52;15.77;;;8.95;;
30553;SDS011;17335;50.720;7.452;2022-08-19T12:44:20;12.15;;;8.88;;
30553;SDS011;17335;50.720;7.452;2022-08-19T12:46:54;14.10;;;10.47;;
30553;SDS011;17335;50.720;7.452;2022-08-19T12:49:20;15.20;;;10.40;;
30553;SDS011;17335;50.720;7.452;2022-08-19T12:52:08;14.80;;;9.98;;
30553;SDS011;17335;50.720;7.452;2022-08-19T12:54:35;19.35;;;11.40;;
30553;SDS011;17335;50.720;7.452;2022-08-19T12:57:06;15.25;;;11.50;;
30553;SDS011;17335;50.720;7.452;2022-08-19T12:59:35;14.15;;;10.25;;
30553;SDS011;17335;50.720;7.452;2022-08-19T13:02:06;15.27;;;10.63;;
30553;SDS011;17335;50.720;7.452;2022-08-19T13:04:34;19.02;;;10.65;;
30553;SDS011;17335;50.720;7.452;2022-08-19T13:07:07;17.35;;;10.70;;
30553;SDS011;17335;50.720;7.452;2022-08-19T13:09:35;11.98;;;8.85;;
30553;SDS011;17335;50.720;7.452;2022-08-19T13:12:02;17.80;;;12.23;;
30553;SDS011;17335;50.720;7.452;2022-08-19T13:14:34;16.73;;;11.07;;
30553;SDS011;17335;50.720;7.452;2022-08-19T13:17:02;16.58;;;9.23;;
30553;SDS011;17335;50.720;7.452;2022-08-19T13:19:28;14.65;;;10.57;;
30553;SDS011;17335;50.720;7.452;2022-08-19T13:21:56;14.77;;;10.18;;
30553;SDS011;17335;50.720;7.452;2022-08-19T13:24:25;15.02;;;9.43;;
30553;SDS011;17335;50.720;7.452;2022-08-19T13:26:59;14.38;;;9.30;;
30553;SDS011;17335;50.720;7.452;2022-08-19T13:29:26;11.07;;;8.27;;
30553;SDS011;17335;50.720;7.452;2022-08-19T13:32:12;10.02;;;7.80;;
30553;SDS011;17335;50.720;7.452;2022-08-19T13:34:57;11.27;;;6.90;;
30553;SDS011;17335;50.720;7.452;2022-08-19T13:37:23;13.52;;;8.40;;
30553;SDS011;17335;50.720;7.452;2022-08-19T13:40:13;12.18;;;8.55;;
30553;SDS011;17335;50.720;7.452;2022-08-19T13:42:46;15.65;;;7.72;;
30553;SDS011;17335;50.720;7.452;2022-08-19T13:45:22;12.60;;;8.50;;
30553;SDS011;17335;50.720;7.452;2022-08-19T13:47:52;10.32;;;6.72;;
30553;SDS011;17335;50.720;7.452;2022-08-19T13:50:28;12.75;;;6.53;;
30553;SDS011;17335;50.720;7.452;2022-08-19T13:52:58;8.98;;;6.15;;
30553;SDS011;17335;50.720;7.452;2022-08-19T13:55:25;10.93;;;6.32;;
30553;SDS011;17335;50.720;7.452;2022-08-19T13:57:54;10.18;;;6.93;;
30553;SDS011;17335;50.720;7.452;2022-08-19T14:00:22;9.57;;;7.03;;
30553;SDS011;17335;50.720;7.452;2022-08-19T14:02:53;7.47;;;5.45;;
30553;SDS011;17335;50.720;7.452;2022-08-19T14:05:22;9.55;;;7.15;;
30553;SDS011;17335;50.720;7.452;2022-08-19T14:07:49;10.02;;;7.53;;
30553;SDS011;17335;50.720;7.452;2022-08-19T14:10:15;8.77;;;6.47;;
30553;SDS011;17335;50.720;7.452;2022-08-19T14:12:43;9.10;;;6.60;;
30553;SDS011;17335;50.720;7.452;2022-08-19T14:15:10;9.23;;;6.63;;
30553;SDS011;17335;50.720;7.452;2022-08-19T14:17:38;14.80;;;6.80;;
30553;SDS011;17335;50.720;7.452;2022-08-19T14:20:07;8.48;;;5.72;;
30553;SDS011;17335;50.720;7.452;2022-08-19T14:22:43;9.93;;;6.80;;
30553;SDS011;17335;50.720;7.452;2022-08-19T14:25:12;13.68;;;7.90;;
30553;SDS011;17335;50.720;7.452;2022-08-19T14:27:41;11.43;;;7.95;;
30553;SDS011;17335;50.720;7.452;2022-08-19T14:30:09;9.77;;;7.32;;
30553;SDS011;17335;50.720;7.452;2022-08-19T14:32:37;8.77;;;6.05;;
30553;SDS011;17335;50.720;7.452;2022-08-19T14:35:04;9.27;;;6.63;;
30553;SDS011;17335;50.720;7.452;2022-08-19T14:37:33;12.98;;;7.22;;
30553;SDS011;17335;50.720;7.452;2022-08-19T14:40:11;9.38;;;5.45;;
30553;SDS011;17335;50.720;7.452;2022-08-19T14:42:43;11.27;;;6.47;;
30553;SDS011;17335;50.720;7.452;2022-08-19T14:45:10;8.13;;;5.45;;
30553;SDS011;17335;50.720;7.452;2022-08-19T14:47:37;10.25;;;5.60;;
30553;SDS011;17335;50.720;7.452;2022-08-19T14:50:06;6.90;;;5.32;;
30553;SDS011;17335;50.720;7.452;2022-08-19T14:52:36;8.65;;;5.80;;
30553;SDS011;17335;50.720;7.452;2022-08-19T14:55:03;9.52;;;6.03;;